createdAt,value
2022-12-13T00:01:21.129Z,98326.28
2022-12-13T00:03:48.195Z,98322.13
2022-12-13T00:06:15.086Z,98321.31
2022-12-13T00:08:42.237Z,98321.66
2022-12-13T00:11:12.393Z,98319.50
2022-12-13T00:13:40.402Z,98324.78
2022-12-13T00:16:11.465Z,98328.12
2022-12-13T00:18:38.462Z,98333.94
2022-12-13T00:21:06.618Z,98329.78
2022-12-13T00:23:33.825Z,98332.75
2022-12-13T00:26:05.887Z,98328.78
2022-12-13T00:28:32.798Z,98327.78
2022-12-13T00:31:19.650Z,98326.13
2022-12-13T00:33:47.560Z,98327.78
2022-12-13T00:36:14.373Z,98330.13
2022-12-13T00:38:41.167Z,98333.31
2022-12-13T00:41:16.438Z,98337.78
2022-12-13T00:43:44.007Z,98341.94
2022-12-13T00:46:17.025Z,98343.12
2022-12-13T00:48:45.234Z,98340.78
2022-12-13T00:51:12.447Z,98345.91
2022-12-13T00:53:39.602Z,98341.94
2022-12-13T00:56:12.035Z,98346.59
2022-12-13T00:58:39.736Z,98344.94
2022-12-13T01:01:17.385Z,98345.75
2022-12-13T01:03:44.403Z,98353.56
2022-12-13T01:06:19.874Z,98355.88
2022-12-13T01:08:47.744Z,98352.75
2022-12-13T01:11:16.000Z,98355.06
2022-12-13T01:13:42.811Z,98360.88
2022-12-13T01:16:11.301Z,98372.47
2022-12-13T01:18:39.497Z,98362.19
2022-12-13T01:21:09.670Z,98367.50
2022-12-13T01:23:36.461Z,98364.03
2022-12-13T01:26:05.039Z,98361.84
2022-12-13T01:28:32.823Z,98358.72
2022-12-13T01:31:05.719Z,98349.09
2022-12-13T01:33:33.450Z,98358.38
2022-12-13T01:36:09.079Z,98366.34
2022-12-13T01:38:37.817Z,98365.69
2022-12-13T01:41:16.608Z,98360.88
2022-12-13T01:43:44.125Z,98354.59
2022-12-13T01:46:12.492Z,98354.41
2022-12-13T01:49:01.057Z,98348.13
2022-12-13T01:51:34.189Z,98344.16
2022-12-13T01:54:03.341Z,98340.19
2022-12-13T01:56:37.012Z,98339.19
2022-12-13T01:59:06.907Z,98344.97
2022-12-13T02:01:34.525Z,98344.63
2022-12-13T02:04:01.378Z,98338.69
2022-12-13T02:06:39.907Z,98340.00
2022-12-13T02:09:08.178Z,98348.94
2022-12-13T02:11:37.249Z,98341.34
2022-12-13T02:14:05.571Z,98345.63
2022-12-13T02:16:45.956Z,98340.50
2022-12-13T02:19:34.069Z,98343.66
2022-12-13T02:22:11.589Z,98335.38
2022-12-13T02:25:06.111Z,98337.34
2022-12-13T02:28:03.276Z,98343.00
2022-12-13T02:30:57.659Z,98338.03
2022-12-13T02:33:47.300Z,98339.03
2022-12-13T02:36:43.872Z,98335.34
2022-12-13T02:39:34.582Z,98336.69
2022-12-13T02:42:07.883Z,98337.34
2022-12-13T02:45:20.056Z,98333.88
2022-12-13T02:47:49.451Z,98333.53
2022-12-13T02:50:16.401Z,98335.03
2022-12-13T02:52:46.553Z,98330.41
2022-12-13T02:55:16.764Z,98331.22
2022-12-13T02:57:45.841Z,98327.25
2022-12-13T03:00:15.613Z,98328.91
2022-12-13T03:03:10.563Z,98328.25
2022-12-13T03:06:33.618Z,98333.69
2022-12-13T03:09:35.283Z,98323.56
2022-12-13T03:12:32.212Z,98328.38
2022-12-13T03:15:03.418Z,98328.03
2022-12-13T03:17:37.823Z,98330.03
2022-12-13T03:20:12.946Z,98330.53
2022-12-13T03:22:49.871Z,98335.31
2022-12-13T03:25:31.919Z,98336.31
2022-12-13T03:28:03.064Z,98333.16
2022-12-13T03:30:32.670Z,98328.53
2022-12-13T03:32:59.950Z,98341.44
2022-12-13T03:35:34.808Z,98336.47
2022-12-13T03:38:21.374Z,98333.50
2022-12-13T03:41:02.351Z,98341.22
2022-12-13T03:43:29.507Z,98335.62
2022-12-13T03:45:56.436Z,98336.75
2022-12-13T03:48:24.083Z,98332.47
2022-12-13T03:50:52.843Z,98338.75
2022-12-13T03:53:23.207Z,98332.78
2022-12-13T03:56:03.345Z,98337.59
2022-12-13T03:58:35.025Z,98331.97
2022-12-13T04:01:05.850Z,98333.28
2022-12-13T04:03:32.671Z,98331.63
2022-12-13T04:05:59.461Z,98335.59
2022-12-13T04:08:26.227Z,98334.75
2022-12-13T04:10:53.275Z,98331.13
2022-12-13T04:13:40.329Z,98333.78
2022-12-13T04:16:07.461Z,98338.06
2022-12-13T04:18:34.223Z,98331.78
2022-12-13T04:21:00.997Z,98327.50
2022-12-13T04:23:27.788Z,98326.16
2022-12-13T04:25:54.703Z,98333.44
2022-12-13T04:28:22.038Z,98329.41
2022-12-13T04:30:53.492Z,98323.13
2022-12-13T04:33:24.237Z,98324.00
2022-12-13T04:35:51.944Z,98333.22
2022-12-13T04:38:19.034Z,98332.37
2022-12-13T04:40:46.317Z,98335.53
2022-12-13T04:43:13.136Z,98341.81
2022-12-13T04:45:40.066Z,98334.19
2022-12-13T04:48:06.939Z,98340.97
2022-12-13T04:50:34.141Z,98335.66
2022-12-13T04:53:00.965Z,98331.53
2022-12-13T04:55:27.838Z,98335.44
2022-12-13T04:57:54.642Z,98338.78
2022-12-13T05:00:23.329Z,98328.22
2022-12-13T05:02:50.517Z,98329.53
2022-12-13T05:05:17.837Z,98323.06
2022-12-13T05:07:44.950Z,98330.47
2022-12-13T05:10:12.227Z,98320.22
2022-12-13T05:12:39.109Z,98327.81
2022-12-13T05:15:06.761Z,98323.34
2022-12-13T05:17:34.500Z,98326.34
2022-12-13T05:20:01.289Z,98319.22
2022-12-13T05:22:28.119Z,98320.03
2022-12-13T05:24:54.965Z,98324.66
2022-12-13T05:27:25.408Z,98323.50
2022-12-13T05:30:05.275Z,98322.84
2022-12-13T05:32:43.157Z,98323.00
2022-12-13T05:35:22.017Z,98327.31
2022-12-13T05:37:54.271Z,98324.81
2022-12-13T05:40:28.111Z,98323.16
2022-12-13T05:43:01.272Z,98320.28
2022-12-13T05:45:30.271Z,98322.13
2022-12-13T05:47:57.154Z,98320.16
2022-12-13T05:50:24.678Z,98318.47
2022-12-13T05:52:51.588Z,98327.41
2022-12-13T05:55:18.750Z,98328.88
2022-12-13T05:57:50.362Z,98326.22
2022-12-13T06:00:28.514Z,98320.94
2022-12-13T06:03:00.452Z,98324.06
2022-12-13T06:05:29.881Z,98330.50
2022-12-13T06:07:58.297Z,98329.97
2022-12-13T06:10:34.126Z,98330.28
2022-12-13T06:13:21.855Z,98330.44
2022-12-13T06:15:52.935Z,98330.44
2022-12-13T06:18:31.194Z,98323.94
2022-12-13T06:21:02.859Z,98329.91
2022-12-13T06:23:31.245Z,98330.75
2022-12-13T06:25:58.328Z,98334.84
2022-12-13T06:28:25.181Z,98337.16
2022-12-13T06:30:52.525Z,98341.09
2022-12-13T06:33:23.520Z,98338.78
2022-12-13T06:35:52.655Z,98339.75
2022-12-13T06:38:31.097Z,98342.72
2022-12-13T06:41:17.062Z,98340.75
2022-12-13T06:43:48.227Z,98349.81
2022-12-13T06:46:15.728Z,98354.28
2022-12-13T06:48:42.627Z,98345.53
2022-12-13T06:51:10.327Z,98351.47
2022-12-13T06:53:39.066Z,98353.44
2022-12-13T06:56:11.985Z,98351.28
2022-12-13T06:58:40.254Z,98349.63
2022-12-13T07:01:24.583Z,98350.56
2022-12-13T07:03:54.824Z,98342.53
2022-12-13T07:06:22.894Z,98349.97
2022-12-13T07:08:55.683Z,98356.25
2022-12-13T07:11:25.284Z,98352.63
2022-12-13T07:13:53.607Z,98359.03
2022-12-13T07:16:21.688Z,98353.44
2022-12-13T07:18:53.551Z,98357.06
2022-12-13T07:21:29.660Z,98360.53
2022-12-13T07:23:56.790Z,98356.09
2022-12-13T07:26:24.019Z,98354.28
2022-12-13T07:28:55.271Z,98349.50
2022-12-13T07:31:24.621Z,98356.44
2022-12-13T07:33:52.166Z,98357.75
2022-12-13T07:36:21.728Z,98355.31
2022-12-13T07:38:56.618Z,98359.91
2022-12-13T07:41:25.450Z,98347.53
2022-12-13T07:43:55.107Z,98353.34
2022-12-13T07:46:32.997Z,98355.00
2022-12-13T07:49:04.689Z,98355.34
2022-12-13T07:51:36.185Z,98354.09
2022-12-13T07:54:06.912Z,98351.28
2022-12-13T07:56:35.053Z,98358.75
2022-12-13T07:59:02.233Z,98354.44
2022-12-13T08:01:31.208Z,98345.22
2022-12-13T08:03:58.069Z,98350.84
2022-12-13T08:06:24.832Z,98346.22
2022-12-13T08:08:58.154Z,98350.38
2022-12-13T08:11:24.997Z,98344.91
2022-12-13T08:13:53.766Z,98336.88
2022-12-13T08:16:27.533Z,98344.16
2022-12-13T08:19:02.043Z,98342.03
2022-12-13T08:21:56.660Z,98339.56
2022-12-13T08:24:26.897Z,98343.53
2022-12-13T08:26:54.256Z,98339.63
2022-12-13T08:29:23.149Z,98340.78
2022-12-13T08:32:09.306Z,98340.47
2022-12-13T08:34:36.843Z,98342.47
2022-12-13T08:37:04.523Z,98333.88
2022-12-13T08:39:35.687Z,98336.91
2022-12-13T08:42:16.606Z,98340.22
2022-12-13T08:44:50.667Z,98338.75
2022-12-13T08:47:22.896Z,98340.06
2022-12-13T08:49:53.520Z,98331.63
2022-12-13T08:52:21.742Z,98333.97
2022-12-13T08:54:48.598Z,98331.69
2022-12-13T08:57:15.799Z,98333.50
2022-12-13T08:59:42.733Z,98337.31
2022-12-13T09:02:14.721Z,98336.81
2022-12-13T09:04:42.389Z,98339.16
2022-12-13T09:07:09.436Z,98337.69
2022-12-13T09:09:37.402Z,98340.00
2022-12-13T09:12:11.010Z,98340.16
2022-12-13T09:14:52.555Z,98336.84
2022-12-13T09:17:36.683Z,98346.81
2022-12-13T09:20:10.091Z,98342.66
2022-12-13T09:23:01.141Z,98337.50
2022-12-13T09:25:28.265Z,98337.00
2022-12-13T09:28:03.766Z,98331.06
2022-12-13T09:30:31.322Z,98333.88
2022-12-13T09:32:58.832Z,98324.59
2022-12-13T09:35:45.655Z,98328.38
2022-12-13T09:38:12.921Z,98327.56
2022-12-13T09:40:41.102Z,98321.59
2022-12-13T09:43:22.905Z,98319.91
2022-12-13T09:45:51.225Z,98323.38
2022-12-13T09:48:22.794Z,98319.88
2022-12-13T09:50:58.524Z,98320.84
2022-12-13T09:53:38.101Z,98315.69
2022-12-13T09:56:10.093Z,98313.19
2022-12-13T09:58:38.332Z,98314.31
2022-12-13T10:01:06.282Z,98307.47
2022-12-13T10:03:33.117Z,98311.94
2022-12-13T10:06:12.347Z,98306.94
2022-12-13T10:08:43.756Z,98306.06
2022-12-13T10:11:14.854Z,98310.66
2022-12-13T10:14:10.091Z,98312.47
2022-12-13T10:16:37.503Z,98305.44
2022-12-13T10:19:33.956Z,98299.78
2022-12-13T10:22:03.122Z,98297.44
2022-12-13T10:24:48.771Z,98302.25
2022-12-13T10:27:18.295Z,98298.03
2022-12-13T10:30:07.245Z,98291.19
2022-12-13T10:32:45.145Z,98301.09
2022-12-13T10:35:21.285Z,98294.09
2022-12-13T10:37:48.285Z,98289.06
2022-12-13T10:40:33.277Z,98278.72
2022-12-13T10:43:07.724Z,98272.88
2022-12-13T10:45:34.870Z,98269.66
2022-12-13T10:48:04.352Z,98271.16
2022-12-13T10:50:32.389Z,98271.44
2022-12-13T10:53:00.739Z,98272.09
2022-12-13T10:55:33.267Z,98271.53
2022-12-13T10:58:18.493Z,98271.00
2022-12-13T11:00:47.647Z,98269.63
2022-12-13T11:03:30.961Z,98272.78
2022-12-13T11:06:14.080Z,98264.44
2022-12-13T11:08:41.650Z,98255.25
2022-12-13T11:11:09.715Z,98253.88
2022-12-13T11:13:40.586Z,98252.69
2022-12-13T11:16:41.068Z,98246.16
2022-12-13T11:19:18.555Z,98246.44
2022-12-13T11:21:49.217Z,98239.94
2022-12-13T11:24:25.917Z,98242.88
2022-12-13T11:26:59.114Z,98236.19
2022-12-13T11:29:34.087Z,98226.81
2022-12-13T11:32:23.031Z,98229.94
2022-12-13T11:35:17.167Z,98230.38
2022-12-13T11:37:50.975Z,98226.81
2022-12-13T11:40:27.294Z,98216.00
2022-12-13T11:43:21.603Z,98212.13
2022-12-13T11:45:56.021Z,98202.13
2022-12-13T11:48:34.680Z,98201.56
2022-12-13T11:51:01.963Z,98199.97
2022-12-13T11:53:41.120Z,98199.44
2022-12-13T11:56:33.038Z,98188.22
2022-12-13T11:59:26.581Z,98191.31
2022-12-13T12:02:16.683Z,98200.38
2022-12-13T12:04:51.526Z,98202.69
2022-12-13T12:07:34.022Z,98199.63
2022-12-13T12:10:28.710Z,98201.09
2022-12-13T12:13:17.871Z,98203.59
2022-12-13T12:16:01.628Z,98204.22
2022-12-13T12:18:28.874Z,98204.03
2022-12-13T12:21:14.550Z,98201.19
2022-12-13T12:23:54.697Z,98193.81
2022-12-13T12:26:35.731Z,98188.13
2022-12-13T12:29:17.826Z,98189.56
2022-12-13T12:32:22.426Z,98183.66
2022-12-13T12:35:11.141Z,98177.13
2022-12-13T12:38:01.003Z,98178.59
2022-12-13T12:40:52.570Z,98175.56
2022-12-13T12:43:41.403Z,98171.87
2022-12-13T12:46:23.955Z,98175.62
2022-12-13T12:49:13.079Z,98172.75
2022-12-13T12:51:56.056Z,98167.03
2022-12-13T12:54:41.888Z,98167.28
2022-12-13T12:57:14.640Z,98156.44
2022-12-13T13:00:02.810Z,98157.06
2022-12-13T13:03:18.873Z,98160.81
2022-12-13T13:06:12.263Z,98158.41
2022-12-13T13:08:59.427Z,98168.84
2022-12-13T13:11:29.485Z,98170.31
2022-12-13T13:14:01.844Z,98176.91
2022-12-13T13:16:37.756Z,98166.88
2022-12-13T13:23:40.097Z,98181.09
2022-12-13T13:30:25.128Z,98184.41
2022-12-13T13:32:55.095Z,98184.41
2022-12-13T13:35:30.847Z,98196.97
2022-12-13T13:37:59.314Z,98194.53
2022-12-13T13:40:35.721Z,98194.81
2022-12-13T13:43:05.493Z,98195.88
2022-12-13T13:46:09.229Z,98184.00
2022-12-13T13:48:41.783Z,98178.28
2022-12-13T13:51:20.581Z,98181.16
2022-12-13T13:53:47.475Z,98189.19
2022-12-13T13:56:50.199Z,98186.13
2022-12-13T13:59:23.200Z,98186.75
2022-12-13T14:02:01.048Z,98195.37
2022-12-13T14:04:49.651Z,98192.53
2022-12-13T14:07:34.915Z,98188.03
2022-12-13T14:10:13.721Z,98187.19
2022-12-13T14:13:05.057Z,98185.97
2022-12-13T14:16:06.347Z,98189.28
2022-12-13T14:19:00.757Z,98182.09
2022-12-13T14:21:37.530Z,98184.56
2022-12-13T14:24:22.571Z,98186.22
2022-12-13T14:27:01.723Z,98183.53
2022-12-13T14:29:33.936Z,98182.72
2022-12-13T14:32:01.342Z,98181.91
2022-12-13T14:34:33.642Z,98185.59
2022-12-13T14:37:06.369Z,98180.25
2022-12-13T14:39:36.549Z,98177.59
2022-12-13T14:42:22.563Z,98172.44
2022-12-13T14:45:07.939Z,98172.66
2022-12-13T14:47:34.735Z,98177.34
2022-12-13T14:50:01.809Z,98176.91
2022-12-13T14:52:35.690Z,98182.22
2022-12-13T14:55:06.319Z,98191.44
2022-12-13T14:57:35.055Z,98196.16
2022-12-13T15:00:25.951Z,98194.06
2022-12-13T15:02:55.787Z,98193.25
2022-12-13T15:05:47.021Z,98197.75
2022-12-13T15:08:21.558Z,98205.53
2022-12-13T15:11:06.633Z,98207.56
2022-12-13T15:13:51.786Z,98207.75
2022-12-13T15:16:28.133Z,98201.78
2022-12-13T15:19:14.321Z,98202.34
2022-12-13T15:22:04.702Z,98206.62
2022-12-13T15:24:34.666Z,98201.28
2022-12-13T15:27:01.777Z,98201.69
2022-12-13T15:29:32.210Z,98209.03
2022-12-13T15:31:59.287Z,98200.41
2022-12-13T15:34:30.553Z,98192.63
2022-12-13T15:37:28.108Z,98207.78
2022-12-13T15:40:00.388Z,98202.00
2022-12-13T15:42:32.427Z,98212.69
2022-12-13T15:45:03.609Z,98213.84
2022-12-13T15:47:30.698Z,98204.78
2022-12-13T15:50:00.971Z,98207.66
2022-12-13T15:52:39.910Z,98217.47
2022-12-13T15:55:09.723Z,98213.38
2022-12-13T15:57:50.197Z,98210.87
2022-12-13T16:00:17.021Z,98210.87
2022-12-13T16:03:15.176Z,98211.28
2022-12-13T16:05:49.290Z,98199.78
2022-12-13T16:08:27.302Z,98196.50
2022-12-13T16:10:55.044Z,98197.91
2022-12-13T16:13:31.687Z,98200.56
2022-12-13T16:16:09.281Z,98213.06
2022-12-13T16:18:45.889Z,98213.22
2022-12-13T16:21:12.737Z,98210.13
2022-12-13T16:23:39.528Z,98206.81
2022-12-13T16:26:09.236Z,98210.69
2022-12-13T16:28:36.288Z,98216.84
2022-12-13T16:31:17.243Z,98217.41
2022-12-13T16:33:44.820Z,98218.63
2022-12-13T16:36:11.989Z,98213.69
2022-12-13T16:38:39.705Z,98211.00
2022-12-13T16:41:08.394Z,98218.75
2022-12-13T16:44:09.702Z,98217.06
2022-12-13T16:47:15.154Z,98211.31
2022-12-13T16:49:29.543Z,98211.50
2022-12-13T16:51:56.942Z,98212.50
2022-12-13T16:54:25.206Z,98213.50
2022-12-13T16:56:54.456Z,98209.59
2022-12-13T16:59:24.911Z,98214.28
2022-12-13T17:01:53.135Z,98213.19
2022-12-13T17:04:22.920Z,98206.22
2022-12-13T17:06:51.389Z,98216.22
2022-12-13T17:09:24.191Z,98215.56
2022-12-13T17:11:51.334Z,98217.59
2022-12-13T17:14:18.760Z,98216.97
2022-12-13T17:16:47.510Z,98209.97
2022-12-13T17:19:15.909Z,98212.19
2022-12-13T17:21:43.426Z,98209.72
2022-12-13T17:24:11.051Z,98209.91
2022-12-13T17:26:54.772Z,98202.50
2022-12-13T17:29:24.585Z,98199.81
2022-12-13T17:31:52.596Z,98206.34
2022-12-13T17:34:21.752Z,98209.37
2022-12-13T17:36:49.231Z,98201.56
2022-12-13T17:39:16.429Z,98203.41
2022-12-13T17:41:43.197Z,98208.47
2022-12-13T17:44:22.545Z,98204.97
2022-12-13T17:46:54.909Z,98219.47
2022-12-13T17:49:24.159Z,98210.84
2022-12-13T17:51:54.261Z,98206.53
2022-12-13T17:54:24.227Z,98223.06
2022-12-13T17:56:52.687Z,98216.72
2022-12-13T17:59:20.150Z,98219.59
2022-12-13T18:01:47.684Z,98218.13
2022-12-13T18:04:34.594Z,98216.66
2022-12-13T18:07:01.792Z,98218.19
2022-12-13T18:09:28.886Z,98216.53
2022-12-13T18:11:55.938Z,98215.91
2022-12-13T18:14:23.451Z,98213.88
2022-12-13T18:16:50.916Z,98216.72
2022-12-13T18:19:30.590Z,98215.06
2022-12-13T18:22:03.990Z,98212.41
2022-12-13T18:24:31.487Z,98213.62
2022-12-13T18:27:00.357Z,98220.75
2022-12-13T18:29:29.211Z,98226.28
2022-12-13T18:31:56.697Z,98223.63
2022-12-13T18:34:24.102Z,98223.63
2022-12-13T18:36:51.201Z,98224.63
2022-12-13T18:39:18.852Z,98221.31
2022-12-13T18:41:46.633Z,98231.97
2022-12-13T18:44:14.149Z,98234.34
2022-12-13T18:46:45.862Z,98232.31
2022-12-13T18:49:13.589Z,98223.72
2022-12-13T18:51:41.285Z,98227.56
2022-12-13T18:54:09.096Z,98224.22
2022-12-13T18:56:37.254Z,98228.91
2022-12-13T18:59:04.919Z,98224.78
2022-12-13T19:01:34.053Z,98227.44
2022-12-13T19:04:04.475Z,98232.56
2022-12-13T19:06:32.288Z,98231.28
2022-12-13T19:09:00.191Z,98234.50
2022-12-13T19:11:30.155Z,98239.00
2022-12-13T19:13:59.955Z,98231.19
2022-12-13T19:16:28.097Z,98223.03
2022-12-13T19:19:05.786Z,98231.03
2022-12-13T19:21:34.919Z,98234.59
2022-12-13T19:24:03.015Z,98236.75
2022-12-13T19:26:32.934Z,98238.31
2022-12-13T19:29:04.619Z,98240.31
2022-12-13T19:31:34.205Z,98241.34
2022-12-13T19:34:05.681Z,98248.47
2022-12-13T19:36:33.620Z,98242.88
2022-12-13T19:39:01.437Z,98242.88
2022-12-13T19:41:33.425Z,98245.44
2022-12-13T19:44:05.067Z,98240.94
2022-12-13T19:46:34.336Z,98238.28
2022-12-13T19:49:03.557Z,98233.16
2022-12-13T19:51:37.455Z,98234.31
2022-12-13T19:54:09.808Z,98240.00
2022-12-13T19:56:38.275Z,98225.87
2022-12-13T19:59:06.218Z,98241.00
2022-12-13T20:01:35.568Z,98229.44
2022-12-13T20:04:03.800Z,98241.06
2022-12-13T20:06:33.379Z,98243.09
2022-12-13T20:09:04.293Z,98233.63
2022-12-13T20:11:32.782Z,98236.66
2022-12-13T20:14:20.361Z,98239.31
2022-12-13T20:16:48.439Z,98240.47
2022-12-13T20:19:35.516Z,98235.34
2022-12-13T20:22:04.394Z,98227.38
2022-12-13T20:24:34.366Z,98228.53
2022-12-13T20:27:05.455Z,98226.06
2022-12-13T20:29:33.527Z,98215.16
2022-12-13T20:32:01.109Z,98215.16
2022-12-13T20:34:29.042Z,98214.03
2022-12-13T20:36:56.818Z,98214.41
2022-12-13T20:39:26.307Z,98216.06
2022-12-13T20:41:54.175Z,98214.59
2022-12-13T20:44:22.837Z,98198.81
2022-12-13T20:46:51.941Z,98209.94
2022-12-13T20:49:19.853Z,98202.81
2022-12-13T20:51:50.552Z,98207.47
2022-12-13T20:54:18.606Z,98204.00
2022-12-13T20:56:46.519Z,98196.84
2022-12-13T20:59:14.405Z,98199.69
2022-12-13T21:01:44.966Z,98198.03
2022-12-13T21:04:17.355Z,98187.59
2022-12-13T21:06:44.326Z,98188.78
2022-12-13T21:09:11.851Z,98185.47
2022-12-13T21:11:44.587Z,98183.00
2022-12-13T21:14:25.259Z,98176.50
2022-12-13T21:16:55.126Z,98173.03
2022-12-13T21:19:27.885Z,98172.84
2022-12-13T21:21:56.310Z,98177.03
2022-12-13T21:24:25.256Z,98175.56
2022-12-13T21:26:52.520Z,98174.22
2022-12-13T21:29:19.463Z,98174.22
2022-12-13T21:31:50.141Z,98176.88
2022-12-13T21:34:18.316Z,98171.91
2022-12-13T21:36:47.387Z,98173.38
2022-12-13T21:39:27.813Z,98175.22
2022-12-13T21:41:54.753Z,98171.91
2022-12-13T21:44:22.231Z,98174.41
2022-12-13T21:49:35.790Z,98163.31
2022-12-13T21:52:02.495Z,98166.59
2022-12-13T21:54:29.187Z,98167.62
2022-12-13T21:57:14.524Z,98161.47
2022-12-13T21:59:41.232Z,98157.66
2022-12-13T22:02:16.859Z,98158.66
2022-12-13T22:04:47.778Z,98158.81
2022-12-13T22:07:17.585Z,98154.69
2022-12-13T22:09:45.213Z,98145.56
2022-12-13T22:12:24.081Z,98143.91
2022-12-13T22:14:51.959Z,98144.91
2022-12-13T22:17:20.245Z,98138.78
2022-12-13T22:19:48.575Z,98137.78
2022-12-13T22:22:20.880Z,98131.63
2022-12-13T22:24:53.149Z,98125.66
2022-12-13T22:27:24.046Z,98124.44
2022-12-13T22:29:58.428Z,98123.12
2022-12-13T22:32:27.450Z,98115.00
2022-12-13T22:34:54.299Z,98115.34
2022-12-13T22:37:21.184Z,98118.84
2022-12-13T22:39:48.181Z,98105.22
2022-12-13T22:42:15.478Z,98111.53
2022-12-13T22:44:42.317Z,98112.28
2022-12-13T22:47:09.056Z,98117.41
2022-12-13T22:49:35.834Z,98123.25
2022-12-13T22:52:02.676Z,98118.28
2022-12-13T22:54:29.464Z,98120.78
2022-12-13T22:56:56.173Z,98106.69
2022-12-13T22:59:22.865Z,98097.25
2022-12-13T23:01:49.848Z,98093.78
2022-12-13T23:04:16.740Z,98086.16
2022-12-13T23:06:43.515Z,98084.97
2022-12-13T23:09:14.311Z,98090.47
2022-12-13T23:12:00.082Z,98091.28
2022-12-13T23:14:32.351Z,98096.59
2022-12-13T23:17:00.465Z,98090.47
2022-12-13T23:19:49.490Z,98084.53
2022-12-13T23:22:14.566Z,98079.03
2022-12-13T23:24:41.299Z,98085.19
2022-12-13T23:27:08.018Z,98091.66
2022-12-13T23:29:34.773Z,98089.47
2022-12-13T23:32:01.511Z,98087.00
2022-12-13T23:34:28.246Z,98090.28
2022-12-13T23:36:54.957Z,98081.50
2022-12-13T23:39:21.798Z,98084.81
2022-12-13T23:41:48.511Z,98091.12
2022-12-13T23:44:15.280Z,98086.63
2022-12-13T23:46:42.072Z,98084.44
2022-12-13T23:49:15.761Z,98078.97
2022-12-13T23:51:42.638Z,98081.78
2022-12-13T23:54:14.606Z,98068.72
2022-12-13T23:56:41.415Z,98073.66
2022-12-13T23:59:08.155Z,98076.31
